createdAt,value
2016-12-11T00:00:02.763Z,23.61
2016-12-11T00:00:43.540Z,23.55
2016-12-11T00:01:24.287Z,23.6
2016-12-11T00:02:05.045Z,23.55
2016-12-11T00:02:46.838Z,23.57
2016-12-11T00:03:27.628Z,23.63
2016-12-11T00:04:08.397Z,23.6
2016-12-11T00:04:49.153Z,23.57
2016-12-11T00:05:29.922Z,23.61
2016-12-11T00:06:10.660Z,23.58
2016-12-11T00:06:51.447Z,23.63
2016-12-11T00:07:32.200Z,23.61
2016-12-11T00:08:12.975Z,23.53
2016-12-11T00:08:53.724Z,23.57
2016-12-11T00:09:34.512Z,23.55
2016-12-11T00:10:15.279Z,23.55
2016-12-11T00:10:56.039Z,23.55
2016-12-11T00:11:36.787Z,23.54
2016-12-11T00:12:17.563Z,23.53
2016-12-11T00:12:58.347Z,23.53
2016-12-11T00:13:39.086Z,23.54
2016-12-11T00:14:19.848Z,23.55
2016-12-11T00:15:00.613Z,23.58
2016-12-11T00:15:41.379Z,23.58
2016-12-11T00:16:22.155Z,23.53
2016-12-11T00:17:02.924Z,23.48
2016-12-11T00:17:43.687Z,23.51
2016-12-11T00:18:24.428Z,23.58
2016-12-11T00:19:05.203Z,23.53
2016-12-11T00:19:45.982Z,23.51
2016-12-11T00:20:26.720Z,23.51
2016-12-11T00:21:07.466Z,23.57
2016-12-11T00:21:48.237Z,23.53
2016-12-11T00:22:29.012Z,23.53
2016-12-11T00:23:09.785Z,23.54
2016-12-11T00:23:50.571Z,23.57
2016-12-11T00:24:31.320Z,23.54
2016-12-11T00:25:12.096Z,23.51
2016-12-11T00:25:52.879Z,23.51
2016-12-11T00:26:33.664Z,23.53
2016-12-11T00:27:14.445Z,23.53
2016-12-11T00:27:55.189Z,23.58
2016-12-11T00:28:35.971Z,23.54
2016-12-11T00:29:16.737Z,23.53
2016-12-11T00:29:57.484Z,23.54
2016-12-11T00:30:38.227Z,23.55
2016-12-11T00:31:18.985Z,23.51
2016-12-11T00:31:59.760Z,23.51
2016-12-11T00:32:40.506Z,23.55
2016-12-11T00:33:21.264Z,23.53
2016-12-11T00:34:02.000Z,23.53
2016-12-11T00:34:42.773Z,23.58
2016-12-11T00:35:23.560Z,23.55
2016-12-11T00:36:04.334Z,23.5
2016-12-11T00:36:45.097Z,23.51
2016-12-11T00:37:25.841Z,23.55
2016-12-11T00:38:06.627Z,23.53
2016-12-11T00:38:47.372Z,23.48
2016-12-11T00:39:28.153Z,23.47
2016-12-11T00:40:08.904Z,23.51
2016-12-11T00:40:49.655Z,23.42
2016-12-11T00:41:30.403Z,23.5
2016-12-11T00:42:11.169Z,23.53
2016-12-11T00:42:51.954Z,23.51
2016-12-11T00:43:32.707Z,23.46
2016-12-11T00:44:13.474Z,23.53
2016-12-11T00:44:54.235Z,23.54
2016-12-11T00:45:35.019Z,23.5
2016-12-11T00:46:15.768Z,23.46
2016-12-11T00:46:56.531Z,23.47
2016-12-11T00:47:37.280Z,23.48
2016-12-11T00:48:18.056Z,23.51
2016-12-11T00:48:58.809Z,23.5
2016-12-11T00:49:39.575Z,23.54
2016-12-11T00:50:20.329Z,23.5
2016-12-11T00:51:01.106Z,23.53
2016-12-11T00:51:41.868Z,23.47
2016-12-11T00:52:22.647Z,23.6
2016-12-11T00:53:03.387Z,23.5
2016-12-11T00:53:44.124Z,23.47
2016-12-11T00:54:24.913Z,23.48
2016-12-11T00:55:05.659Z,23.48
2016-12-11T00:55:46.445Z,23.53
2016-12-11T00:56:27.236Z,23.48
2016-12-11T00:57:07.979Z,23.51
2016-12-11T00:57:48.768Z,23.54
2016-12-11T00:58:29.549Z,23.54
2016-12-11T00:59:10.298Z,23.53
2016-12-11T00:59:51.053Z,23.53
2016-12-11T01:00:31.824Z,23.48
2016-12-11T01:01:12.604Z,23.53
2016-12-11T01:01:53.342Z,23.5
2016-12-11T01:02:34.113Z,23.5
2016-12-11T01:03:14.867Z,23.5
2016-12-11T01:03:55.646Z,23.48
2016-12-11T01:04:36.424Z,23.54
2016-12-11T01:05:17.203Z,23.51
2016-12-11T01:05:57.976Z,23.5
2016-12-11T01:06:38.723Z,23.53
2016-12-11T01:07:19.504Z,23.48
2016-12-11T01:08:00.295Z,23.53
2016-12-11T01:08:41.058Z,23.53
2016-12-11T01:09:21.799Z,23.51
2016-12-11T01:10:02.549Z,23.48
2016-12-11T01:10:43.314Z,23.53
2016-12-11T01:11:24.045Z,23.48
2016-12-11T01:12:04.802Z,23.54
2016-12-11T01:12:45.573Z,23.42
2016-12-11T01:13:26.335Z,23.47
2016-12-11T01:14:07.089Z,23.54
2016-12-11T01:14:47.862Z,23.46
2016-12-11T01:15:28.609Z,23.53
2016-12-11T01:16:09.375Z,23.47
2016-12-11T01:16:50.149Z,23.47
2016-12-11T01:17:30.881Z,23.54
2016-12-11T01:18:11.642Z,23.46
2016-12-11T01:18:52.409Z,23.48
2016-12-11T01:19:33.191Z,23.48
2016-12-11T01:20:13.952Z,23.46
2016-12-11T01:20:54.684Z,23.5
2016-12-11T01:21:35.470Z,23.51
2016-12-11T01:22:16.817Z,23.47
2016-12-11T01:22:57.634Z,23.51
2016-12-11T01:23:38.400Z,23.46
2016-12-11T01:24:19.162Z,23.47
2016-12-11T01:24:59.912Z,23.51
2016-12-11T01:25:41.309Z,23.53
2016-12-11T01:26:22.102Z,23.43
2016-12-11T01:27:02.859Z,23.51
2016-12-11T01:27:43.628Z,23.51
2016-12-11T01:28:24.390Z,23.48
2016-12-11T01:29:05.144Z,23.48
2016-12-11T01:29:45.935Z,23.51
2016-12-11T01:30:26.710Z,23.51
2016-12-11T01:31:07.476Z,23.55
2016-12-11T01:31:48.221Z,23.53
2016-12-11T01:32:29.005Z,23.51
2016-12-11T01:33:09.771Z,23.47
2016-12-11T01:33:50.576Z,23.51
2016-12-11T01:34:31.346Z,23.43
2016-12-11T01:35:12.087Z,23.48
2016-12-11T01:35:52.852Z,23.47
2016-12-11T01:36:33.611Z,23.46
2016-12-11T01:37:14.381Z,23.5
2016-12-11T01:37:55.127Z,23.51
2016-12-11T01:38:35.896Z,23.43
2016-12-11T01:39:16.670Z,23.47
2016-12-11T01:39:57.448Z,23.47
2016-12-11T01:40:38.208Z,23.42
2016-12-11T01:41:18.966Z,23.43
2016-12-11T01:41:59.774Z,23.51
2016-12-11T01:42:40.553Z,23.48
2016-12-11T01:43:21.331Z,23.48
2016-12-11T01:44:02.091Z,23.42
2016-12-11T01:44:42.815Z,23.53
2016-12-11T01:45:23.589Z,23.46
2016-12-11T01:46:04.356Z,23.5
2016-12-11T01:46:45.110Z,23.48
2016-12-11T01:47:25.884Z,23.43
2016-12-11T01:48:06.643Z,23.53
2016-12-11T01:48:47.417Z,23.51
2016-12-11T01:49:28.175Z,23.51
2016-12-11T01:50:08.947Z,23.5
2016-12-11T01:50:49.703Z,23.53
2016-12-11T01:51:30.444Z,23.46
2016-12-11T01:52:11.950Z,23.47
2016-12-11T01:52:52.716Z,23.47
2016-12-11T01:53:33.480Z,23.43
2016-12-11T01:54:14.231Z,23.5
2016-12-11T01:54:54.991Z,23.43
2016-12-11T01:55:35.762Z,23.47
2016-12-11T01:56:16.528Z,23.51
2016-12-11T01:56:57.272Z,23.43
2016-12-11T01:57:38.030Z,23.51
2016-12-11T01:58:18.778Z,23.47
2016-12-11T01:58:59.570Z,23.42
2016-12-11T01:59:40.327Z,23.5
2016-12-11T02:00:21.098Z,23.53
2016-12-11T02:01:01.855Z,23.47
2016-12-11T02:01:42.627Z,23.51
2016-12-11T02:02:23.397Z,23.46
2016-12-11T02:03:04.166Z,23.51
2016-12-11T02:03:44.915Z,23.42
2016-12-11T02:04:25.672Z,23.51
2016-12-11T02:05:06.455Z,23.43
2016-12-11T02:05:47.240Z,23.46
2016-12-11T02:06:28.003Z,23.46
2016-12-11T02:07:08.768Z,23.48
2016-12-11T02:07:49.504Z,23.4
2016-12-11T02:08:30.272Z,23.47
2016-12-11T02:09:11.043Z,23.47
2016-12-11T02:09:51.829Z,23.47
2016-12-11T02:10:32.605Z,23.48
2016-12-11T02:11:13.373Z,23.36
2016-12-11T02:11:54.107Z,23.46
2016-12-11T02:12:34.873Z,23.46
2016-12-11T02:13:15.623Z,23.5
2016-12-11T02:13:56.374Z,23.54
2016-12-11T02:14:37.141Z,23.43
2016-12-11T02:15:17.898Z,23.42
2016-12-11T02:15:58.654Z,23.42
2016-12-11T02:16:39.449Z,23.46
2016-12-11T02:17:20.203Z,23.51
2016-12-11T02:18:00.971Z,23.42
2016-12-11T02:18:41.750Z,23.47
2016-12-11T02:19:22.514Z,23.46
2016-12-11T02:20:03.254Z,23.46
2016-12-11T02:20:44.013Z,23.46
2016-12-11T02:21:24.795Z,23.48
2016-12-11T02:22:05.547Z,23.46
2016-12-11T02:22:46.322Z,23.47
2016-12-11T02:23:27.097Z,23.38
2016-12-11T02:24:07.842Z,23.51
2016-12-11T02:24:48.603Z,23.43
2016-12-11T02:25:29.382Z,23.46
2016-12-11T02:26:10.147Z,23.5
2016-12-11T02:26:50.913Z,23.46
2016-12-11T02:27:31.685Z,23.4
2016-12-11T02:28:12.434Z,23.4
2016-12-11T02:28:53.195Z,23.42
2016-12-11T02:29:33.970Z,23.46
2016-12-11T02:30:14.741Z,23.48
2016-12-11T02:30:55.484Z,23.46
2016-12-11T02:31:36.236Z,23.43
2016-12-11T02:32:17.009Z,23.53
2016-12-11T02:32:57.757Z,23.48
2016-12-11T02:33:38.536Z,23.47
2016-12-11T02:34:19.304Z,23.42
2016-12-11T02:35:00.060Z,23.47
2016-12-11T02:35:40.810Z,23.47
2016-12-11T02:36:21.565Z,23.46
2016-12-11T02:37:02.329Z,23.36
2016-12-11T02:37:43.079Z,23.47
2016-12-11T02:38:23.853Z,23.47
2016-12-11T02:39:04.608Z,23.47
2016-12-11T02:39:45.348Z,23.4
2016-12-11T02:40:26.110Z,23.47
2016-12-11T02:41:06.877Z,23.46
2016-12-11T02:41:47.620Z,23.39
2016-12-11T02:42:28.380Z,23.4
2016-12-11T02:43:09.139Z,23.46
2016-12-11T02:43:49.881Z,23.42
2016-12-11T02:44:30.652Z,23.4
2016-12-11T02:45:11.404Z,23.38
2016-12-11T02:45:52.159Z,23.47
2016-12-11T02:46:32.902Z,23.48
2016-12-11T02:47:13.675Z,23.47
2016-12-11T02:47:54.427Z,23.42
2016-12-11T02:48:35.183Z,23.48
2016-12-11T02:49:15.948Z,23.36
2016-12-11T02:49:56.722Z,23.42
2016-12-11T02:50:37.489Z,23.47
2016-12-11T02:51:18.231Z,23.4
2016-12-11T02:51:58.987Z,23.36
2016-12-11T02:52:39.747Z,23.46
2016-12-11T02:53:20.514Z,23.4
2016-12-11T02:54:01.294Z,23.43
2016-12-11T02:54:42.046Z,23.43
2016-12-11T02:55:22.800Z,23.42
2016-12-11T02:56:03.568Z,23.47
2016-12-11T02:56:44.348Z,23.47
2016-12-11T02:57:25.119Z,23.43
2016-12-11T02:58:05.863Z,23.42
2016-12-11T02:58:46.603Z,23.47
2016-12-11T02:59:27.350Z,23.4
2016-12-11T03:00:08.104Z,23.38
2016-12-11T03:00:48.896Z,23.39
2016-12-11T03:01:29.654Z,23.43
2016-12-11T03:02:10.398Z,23.42
2016-12-11T03:02:51.142Z,23.42
2016-12-11T03:03:31.905Z,23.39
2016-12-11T03:04:12.679Z,23.35
2016-12-11T03:04:53.410Z,23.33
2016-12-11T03:05:34.162Z,23.38
2016-12-11T03:06:14.945Z,23.46
2016-12-11T03:06:55.710Z,23.36
2016-12-11T03:07:36.490Z,23.4
2016-12-11T03:08:17.271Z,23.4
2016-12-11T03:08:58.051Z,23.4
2016-12-11T03:09:38.819Z,23.47
2016-12-11T03:10:19.578Z,23.39
2016-12-11T03:11:00.367Z,23.39
2016-12-11T03:11:41.124Z,23.39
2016-12-11T03:12:21.891Z,23.39
2016-12-11T03:13:02.665Z,23.38
2016-12-11T03:13:43.427Z,23.43
2016-12-11T03:14:24.178Z,23.47
2016-12-11T03:15:04.931Z,23.4
2016-12-11T03:15:45.696Z,23.4
2016-12-11T03:16:26.452Z,23.39
2016-12-11T03:17:07.214Z,23.42
2016-12-11T03:17:47.967Z,23.4
2016-12-11T03:18:28.719Z,23.4
2016-12-11T03:19:09.523Z,23.42
2016-12-11T03:19:50.289Z,23.39
2016-12-11T03:20:31.048Z,23.4
2016-12-11T03:21:11.816Z,23.46
2016-12-11T03:21:52.577Z,23.4
2016-12-11T03:22:33.341Z,23.42
2016-12-11T03:23:14.116Z,23.35
2016-12-11T03:23:55.441Z,23.36
2016-12-11T03:24:36.211Z,23.42
2016-12-11T03:25:16.984Z,23.4
2016-12-11T03:25:57.740Z,23.38
2016-12-11T03:26:38.504Z,23.36
2016-12-11T03:27:19.270Z,23.47
2016-12-11T03:28:00.025Z,23.4
2016-12-11T03:28:40.788Z,23.39
2016-12-11T03:29:21.539Z,23.33
2016-12-11T03:30:02.302Z,23.4
2016-12-11T03:30:43.076Z,23.4
2016-12-11T03:31:23.815Z,23.36
2016-12-11T03:32:04.605Z,23.39
2016-12-11T03:32:45.381Z,23.33
2016-12-11T03:33:26.138Z,23.47
2016-12-11T03:34:06.908Z,23.4
2016-12-11T03:34:47.642Z,23.43
2016-12-11T03:35:28.383Z,23.4
2016-12-11T03:36:09.155Z,23.43
2016-12-11T03:36:49.926Z,23.39
2016-12-11T03:37:30.671Z,23.38
2016-12-11T03:38:11.429Z,23.42
2016-12-11T03:38:52.181Z,23.46
2016-12-11T03:39:32.955Z,23.36
2016-12-11T03:40:13.733Z,23.36
2016-12-11T03:40:54.482Z,23.36
2016-12-11T03:41:35.258Z,23.36
2016-12-11T03:42:16.010Z,23.36
2016-12-11T03:42:56.773Z,23.39
2016-12-11T03:43:37.521Z,23.38
2016-12-11T03:44:18.308Z,23.35
2016-12-11T03:44:59.079Z,23.4
2016-12-11T03:45:39.830Z,23.43
2016-12-11T03:46:20.593Z,23.38
2016-12-11T03:47:01.368Z,23.46
2016-12-11T03:47:42.135Z,23.39
2016-12-11T03:48:22.909Z,23.38
2016-12-11T03:49:03.679Z,23.42
2016-12-11T03:49:44.402Z,23.42
2016-12-11T03:50:25.129Z,23.36
2016-12-11T03:51:05.897Z,23.39
2016-12-11T03:51:46.667Z,23.43
2016-12-11T03:52:27.411Z,23.35
2016-12-11T03:53:08.163Z,23.38
2016-12-11T03:53:48.943Z,23.39
2016-12-11T03:54:29.693Z,23.46
2016-12-11T03:55:10.465Z,23.42
2016-12-11T03:55:51.232Z,23.4
2016-12-11T03:56:31.970Z,23.36
2016-12-11T03:57:12.763Z,23.35
2016-12-11T03:57:53.534Z,23.35
2016-12-11T03:58:34.285Z,23.43
2016-12-11T03:59:15.042Z,23.4
2016-12-11T03:59:55.792Z,23.36
2016-12-11T04:00:36.549Z,23.38
2016-12-11T04:01:17.327Z,23.35
2016-12-11T04:01:58.067Z,23.35
2016-12-11T04:02:38.850Z,23.42
2016-12-11T04:03:19.630Z,23.4
2016-12-11T04:04:00.434Z,23.43
2016-12-11T04:04:41.190Z,23.36
2016-12-11T04:05:21.973Z,23.39
2016-12-11T04:06:02.719Z,23.4
2016-12-11T04:06:43.474Z,23.39
2016-12-11T04:07:24.239Z,23.39
2016-12-11T04:08:05.022Z,23.36
2016-12-11T04:08:45.799Z,23.39
2016-12-11T04:09:26.543Z,23.38
2016-12-11T04:10:07.335Z,23.38
2016-12-11T04:10:48.093Z,23.42
2016-12-11T04:11:28.845Z,23.38
2016-12-11T04:12:09.622Z,23.36
2016-12-11T04:12:50.383Z,23.39
2016-12-11T04:13:31.140Z,23.39
2016-12-11T04:14:11.912Z,23.35
2016-12-11T04:14:52.677Z,23.4
2016-12-11T04:15:33.437Z,23.39
2016-12-11T04:16:14.200Z,23.4
2016-12-11T04:16:54.966Z,23.39
2016-12-11T04:17:35.743Z,23.38
2016-12-11T04:18:16.478Z,23.35
2016-12-11T04:18:57.241Z,23.4
2016-12-11T04:19:38.004Z,23.46
2016-12-11T04:20:18.776Z,23.36
2016-12-11T04:20:59.532Z,23.36
2016-12-11T04:21:40.305Z,23.43
2016-12-11T04:22:21.044Z,23.35
2016-12-11T04:23:01.855Z,23.35
2016-12-11T04:23:42.624Z,23.42
2016-12-11T04:24:23.377Z,23.39
2016-12-11T04:25:04.122Z,23.36
2016-12-11T04:25:44.902Z,23.42
2016-12-11T04:26:25.670Z,23.36
2016-12-11T04:27:06.409Z,23.4
2016-12-11T04:27:47.175Z,23.33
2016-12-11T04:28:27.950Z,23.33
2016-12-11T04:29:08.717Z,23.27
2016-12-11T04:29:50.028Z,23.39
2016-12-11T04:30:30.811Z,23.36
2016-12-11T04:31:11.585Z,23.36
2016-12-11T04:31:52.376Z,23.38
2016-12-11T04:32:33.150Z,23.32
2016-12-11T04:33:13.919Z,23.36
2016-12-11T04:33:54.681Z,23.39
2016-12-11T04:34:35.409Z,23.4
2016-12-11T04:35:16.175Z,23.36
2016-12-11T04:35:56.952Z,23.42
2016-12-11T04:36:37.731Z,23.39
2016-12-11T04:37:18.505Z,23.32
2016-12-11T04:37:59.277Z,23.36
2016-12-11T04:38:40.034Z,23.36
2016-12-11T04:39:20.792Z,23.4
2016-12-11T04:40:01.563Z,23.27
2016-12-11T04:40:42.319Z,23.35
2016-12-11T04:41:23.070Z,23.31
2016-12-11T04:42:03.823Z,23.31
2016-12-11T04:42:44.580Z,23.39
2016-12-11T04:43:25.367Z,23.28
2016-12-11T04:44:06.121Z,23.38
2016-12-11T04:44:46.890Z,23.35
2016-12-11T04:45:27.642Z,23.28
2016-12-11T04:46:08.395Z,23.38
2016-12-11T04:46:49.147Z,23.35
2016-12-11T04:47:29.907Z,23.35
2016-12-11T04:48:10.656Z,23.38
2016-12-11T04:48:51.419Z,23.36
2016-12-11T04:49:32.192Z,23.31
2016-12-11T04:50:12.966Z,23.31
2016-12-11T04:50:53.729Z,23.36
2016-12-11T04:51:34.489Z,23.32
2016-12-11T04:52:15.279Z,23.32
2016-12-11T04:52:56.056Z,23.36
2016-12-11T04:53:36.829Z,23.36
2016-12-11T04:54:17.598Z,23.31
2016-12-11T04:54:58.328Z,23.33
2016-12-11T04:55:39.078Z,23.4
2016-12-11T04:56:19.839Z,23.28
2016-12-11T04:57:00.622Z,23.38
2016-12-11T04:57:41.367Z,23.33
2016-12-11T04:58:22.132Z,23.35
2016-12-11T04:59:02.898Z,23.32
2016-12-11T04:59:43.645Z,23.35
2016-12-11T05:00:24.410Z,23.28
2016-12-11T05:01:05.180Z,23.33
2016-12-11T05:01:45.947Z,23.28
2016-12-11T05:02:26.720Z,23.35
2016-12-11T05:03:07.487Z,23.35
2016-12-11T05:03:48.243Z,23.27
2016-12-11T05:04:28.994Z,23.33
2016-12-11T05:05:09.759Z,23.33
2016-12-11T05:05:50.499Z,23.42
2016-12-11T05:06:31.284Z,23.28
2016-12-11T05:07:12.009Z,23.35
2016-12-11T05:07:52.770Z,23.28
2016-12-11T05:08:33.538Z,23.25
2016-12-11T05:09:14.308Z,23.38
2016-12-11T05:09:55.060Z,23.35
2016-12-11T05:10:35.813Z,23.31
2016-12-11T05:11:16.571Z,23.28
2016-12-11T05:11:57.311Z,23.25
2016-12-11T05:12:38.094Z,23.28
2016-12-11T05:13:18.860Z,23.25
2016-12-11T05:13:59.626Z,23.32
2016-12-11T05:14:40.374Z,23.31
2016-12-11T05:15:21.157Z,23.28
2016-12-11T05:16:01.909Z,23.25
2016-12-11T05:16:42.681Z,23.31
2016-12-11T05:17:23.480Z,23.33
2016-12-11T05:18:04.225Z,23.32
2016-12-11T05:18:44.988Z,23.36
2016-12-11T05:19:25.766Z,23.32
2016-12-11T05:20:06.566Z,23.32
2016-12-11T05:20:47.317Z,23.28
2016-12-11T05:21:28.084Z,23.33
2016-12-11T05:22:08.844Z,23.31
2016-12-11T05:22:49.637Z,23.31
2016-12-11T05:23:30.398Z,23.31
2016-12-11T05:24:11.187Z,23.31
2016-12-11T05:24:51.943Z,23.27
2016-12-11T05:25:32.709Z,23.28
2016-12-11T05:26:13.463Z,23.28
2016-12-11T05:26:54.250Z,23.32
2016-12-11T05:27:35.017Z,23.35
2016-12-11T05:28:15.794Z,23.27
2016-12-11T05:28:56.568Z,23.36
2016-12-11T05:29:37.340Z,23.23
2016-12-11T05:30:18.081Z,23.31
2016-12-11T05:30:58.824Z,23.28
2016-12-11T05:31:39.588Z,23.28
2016-12-11T05:32:20.346Z,23.23
2016-12-11T05:33:01.118Z,23.31
2016-12-11T05:33:41.875Z,23.25
2016-12-11T05:34:22.650Z,23.42
2016-12-11T05:35:03.400Z,23.31
2016-12-11T05:35:44.164Z,23.23
2016-12-11T05:36:24.937Z,23.31
2016-12-11T05:37:05.698Z,23.33
2016-12-11T05:37:46.468Z,23.35
2016-12-11T05:38:27.220Z,23.23
2016-12-11T05:39:07.989Z,23.35
2016-12-11T05:39:48.761Z,23.31
2016-12-11T05:40:29.503Z,23.32
2016-12-11T05:41:10.262Z,23.32
2016-12-11T05:41:51.032Z,23.25
2016-12-11T05:42:31.791Z,23.22
2016-12-11T05:43:12.551Z,23.25
2016-12-11T05:43:53.308Z,23.25
2016-12-11T05:44:34.070Z,23.31
2016-12-11T05:45:14.836Z,23.35
2016-12-11T05:45:55.608Z,23.35
2016-12-11T05:46:36.371Z,23.25
2016-12-11T05:47:17.152Z,23.2
2016-12-11T05:47:57.932Z,23.28
2016-12-11T05:48:38.667Z,23.28
2016-12-11T05:49:19.423Z,23.27
2016-12-11T05:50:00.180Z,23.31
2016-12-11T05:50:40.950Z,23.31
2016-12-11T05:51:21.735Z,23.23
2016-12-11T05:52:02.521Z,23.22
2016-12-11T05:52:43.273Z,23.31
2016-12-11T05:53:24.023Z,23.27
2016-12-11T05:54:04.786Z,23.25
2016-12-11T05:54:45.550Z,23.23
2016-12-11T05:55:26.299Z,23.23
2016-12-11T05:56:07.087Z,23.22
2016-12-11T05:56:47.865Z,23.2
2016-12-11T05:57:28.613Z,23.23
2016-12-11T05:58:09.375Z,23.22
2016-12-11T05:58:50.140Z,23.31
2016-12-11T05:59:30.900Z,23.2
2016-12-11T06:00:11.676Z,23.23
2016-12-11T06:00:52.438Z,23.27
2016-12-11T06:01:33.202Z,23.28
2016-12-11T06:02:13.989Z,23.25
2016-12-11T06:02:54.781Z,23.38
2016-12-11T06:03:35.534Z,23.28
2016-12-11T06:04:16.298Z,23.25
2016-12-11T06:04:57.059Z,23.23
2016-12-11T06:05:37.811Z,23.27
2016-12-11T06:06:18.554Z,23.27
2016-12-11T06:06:59.333Z,23.23
2016-12-11T06:07:40.076Z,23.23
2016-12-11T06:08:20.836Z,23.27
2016-12-11T06:09:01.611Z,23.22
2016-12-11T06:09:42.373Z,23.25
2016-12-11T06:10:23.120Z,23.27
2016-12-11T06:11:03.878Z,23.28
2016-12-11T06:11:44.640Z,23.22
2016-12-11T06:12:25.401Z,23.22
2016-12-11T06:13:06.164Z,23.25
2016-12-11T06:13:46.931Z,23.35
2016-12-11T06:14:27.683Z,23.23
2016-12-11T06:15:08.436Z,23.27
2016-12-11T06:15:49.239Z,23.28
2016-12-11T06:16:29.988Z,23.22
2016-12-11T06:17:10.759Z,23.19
2016-12-11T06:17:51.516Z,23.25
2016-12-11T06:18:32.253Z,23.32
2016-12-11T06:19:13.055Z,23.27
2016-12-11T06:19:53.799Z,23.28
2016-12-11T06:20:34.557Z,23.19
2016-12-11T06:21:15.330Z,23.17
2016-12-11T06:21:56.095Z,23.22
2016-12-11T06:22:36.848Z,23.23
2016-12-11T06:23:17.613Z,23.32
2016-12-11T06:23:58.373Z,23.2
2016-12-11T06:24:39.138Z,23.25
2016-12-11T06:25:19.906Z,23.2
2016-12-11T06:26:00.693Z,23.25
2016-12-11T06:26:41.485Z,23.19
2016-12-11T06:27:22.219Z,23.25
2016-12-11T06:28:03.014Z,23.25
2016-12-11T06:28:43.765Z,23.25
2016-12-11T06:29:24.518Z,23.28
2016-12-11T06:30:05.252Z,23.28
2016-12-11T06:30:46.031Z,23.23
2016-12-11T06:31:26.787Z,23.23
2016-12-11T06:32:07.552Z,23.23
2016-12-11T06:32:48.329Z,23.27
2016-12-11T06:33:29.087Z,23.22
2016-12-11T06:34:09.836Z,23.17
2016-12-11T06:34:50.619Z,23.25
2016-12-11T06:35:31.367Z,23.25
2016-12-11T06:36:12.129Z,23.27
2016-12-11T06:36:52.885Z,23.31
2016-12-11T06:37:33.651Z,23.25
2016-12-11T06:38:14.415Z,23.22
2016-12-11T06:38:55.196Z,23.25
2016-12-11T06:39:35.953Z,23.2
2016-12-11T06:40:16.716Z,23.27
2016-12-11T06:40:57.459Z,23.23
2016-12-11T06:41:38.223Z,23.31
2016-12-11T06:42:18.986Z,23.17
2016-12-11T06:42:59.735Z,23.23
2016-12-11T06:43:40.490Z,23.27
2016-12-11T06:44:21.260Z,23.22
2016-12-11T06:45:01.999Z,23.17
2016-12-11T06:45:42.789Z,23.25
2016-12-11T06:46:23.567Z,23.28
2016-12-11T06:47:04.322Z,23.25
2016-12-11T06:47:45.082Z,23.32
2016-12-11T06:48:25.832Z,23.27
2016-12-11T06:49:06.612Z,23.27
2016-12-11T06:49:47.364Z,23.23
2016-12-11T06:50:28.134Z,23.22
2016-12-11T06:51:08.935Z,23.27
2016-12-11T06:51:49.706Z,23.2
2016-12-11T06:52:30.454Z,23.22
2016-12-11T06:53:11.194Z,23.23
2016-12-11T06:53:51.959Z,23.23
2016-12-11T06:54:32.723Z,23.28
2016-12-11T06:55:13.470Z,23.22
2016-12-11T06:55:54.225Z,23.2
2016-12-11T06:56:34.982Z,23.17
2016-12-11T06:57:15.753Z,23.32
2016-12-11T06:57:56.539Z,23.27
2016-12-11T06:58:37.292Z,23.22
2016-12-11T06:59:18.040Z,23.17
2016-12-11T06:59:58.792Z,23.19
2016-12-11T07:00:39.577Z,23.16
2016-12-11T07:01:20.318Z,23.22
2016-12-11T07:02:01.074Z,23.23
2016-12-11T07:02:41.854Z,23.19
2016-12-11T07:03:22.584Z,23.17
2016-12-11T07:04:03.325Z,23.28
2016-12-11T07:04:44.093Z,23.31
2016-12-11T07:05:24.843Z,23.23
2016-12-11T07:06:05.606Z,23.27
2016-12-11T07:06:46.353Z,23.2
2016-12-11T07:07:27.103Z,23.32
2016-12-11T07:08:07.863Z,23.19
2016-12-11T07:08:48.629Z,23.25
2016-12-11T07:09:29.389Z,23.27
2016-12-11T07:10:10.150Z,23.23
2016-12-11T07:10:50.903Z,23.31
2016-12-11T07:11:31.664Z,23.27
2016-12-11T07:12:12.423Z,23.25
2016-12-11T07:12:53.175Z,23.23
2016-12-11T07:13:33.950Z,23.25
2016-12-11T07:14:14.735Z,23.25
2016-12-11T07:14:55.478Z,23.33
2016-12-11T07:15:36.238Z,23.23
2016-12-11T07:16:16.996Z,23.23
2016-12-11T07:16:57.762Z,23.31
2016-12-11T07:17:38.543Z,23.27
2016-12-11T07:18:19.287Z,23.2
2016-12-11T07:19:00.040Z,23.25
2016-12-11T07:19:40.824Z,23.22
2016-12-11T07:20:21.589Z,23.2
2016-12-11T07:21:02.355Z,23.23
2016-12-11T07:21:43.106Z,23.32
2016-12-11T07:22:23.853Z,23.22
2016-12-11T07:23:04.621Z,23.25
2016-12-11T07:23:45.388Z,23.19
2016-12-11T07:24:26.167Z,23.31
2016-12-11T07:25:06.896Z,23.31
2016-12-11T07:25:47.686Z,23.17
2016-12-11T07:26:28.457Z,23.19
2016-12-11T07:27:09.224Z,23.25
2016-12-11T07:27:49.961Z,23.25
2016-12-11T07:28:30.725Z,23.25
2016-12-11T07:29:11.497Z,23.31
2016-12-11T07:29:52.268Z,23.17
2016-12-11T07:30:33.024Z,23.2
2016-12-11T07:31:13.783Z,23.19
2016-12-11T07:31:54.564Z,23.2
2016-12-11T07:32:35.324Z,23.25
2016-12-11T07:33:16.090Z,23.17
2016-12-11T07:33:56.855Z,23.23
2016-12-11T07:34:37.608Z,23.19
2016-12-11T07:35:18.379Z,23.25
2016-12-11T07:35:59.159Z,23.19
2016-12-11T07:36:39.908Z,23.25
2016-12-11T07:37:20.650Z,23.33
2016-12-11T07:38:01.391Z,23.17
2016-12-11T07:38:42.161Z,23.23
2016-12-11T07:39:22.917Z,23.23
2016-12-11T07:40:03.686Z,23.31
2016-12-11T07:40:44.464Z,23.27
2016-12-11T07:41:25.198Z,23.27
2016-12-11T07:42:05.949Z,23.23
2016-12-11T07:42:46.722Z,23.25
2016-12-11T07:43:27.484Z,23.27
2016-12-11T07:44:08.252Z,23.2
2016-12-11T07:44:49.011Z,23.27
2016-12-11T07:45:29.769Z,23.27
2016-12-11T07:46:10.541Z,23.31
2016-12-11T07:46:51.285Z,23.17
2016-12-11T07:47:32.041Z,23.27
2016-12-11T07:48:12.806Z,23.28
2016-12-11T07:48:53.564Z,23.27
2016-12-11T07:49:34.318Z,23.25
2016-12-11T07:50:15.079Z,23.31
2016-12-11T07:50:55.840Z,23.23
2016-12-11T07:51:36.589Z,23.27
2016-12-11T07:52:17.370Z,23.22
2016-12-11T07:52:58.139Z,23.27
2016-12-11T07:53:38.900Z,23.27
2016-12-11T07:54:19.645Z,23.22
2016-12-11T07:55:00.415Z,23.31
2016-12-11T07:55:41.197Z,23.27
2016-12-11T07:56:21.985Z,23.31
2016-12-11T07:57:02.768Z,23.27
2016-12-11T07:57:43.548Z,23.22
2016-12-11T07:58:24.303Z,23.27
2016-12-11T07:59:05.066Z,23.25
2016-12-11T07:59:45.841Z,23.2
2016-12-11T08:00:26.597Z,23.19
2016-12-11T08:01:07.368Z,23.22
2016-12-11T08:01:48.140Z,23.22
2016-12-11T08:02:28.912Z,23.22
2016-12-11T08:03:09.649Z,23.32
2016-12-11T08:03:50.408Z,23.28
2016-12-11T08:04:31.177Z,23.25
2016-12-11T08:05:11.961Z,23.23
2016-12-11T08:05:52.726Z,23.25
2016-12-11T08:06:33.485Z,23.27
2016-12-11T08:07:14.239Z,23.25
2016-12-11T08:07:54.986Z,23.25
2016-12-11T08:08:35.787Z,23.22
2016-12-11T08:09:16.553Z,23.28
2016-12-11T08:09:57.326Z,23.25
2016-12-11T08:10:38.076Z,23.25
2016-12-11T08:11:18.827Z,23.2
2016-12-11T08:11:59.563Z,23.23
2016-12-11T08:12:40.346Z,23.23
2016-12-11T08:13:21.103Z,23.25
2016-12-11T08:14:01.857Z,23.27
2016-12-11T08:14:42.603Z,23.36
2016-12-11T08:15:23.380Z,23.38
2016-12-11T08:16:04.150Z,23.25
2016-12-11T08:16:44.908Z,23.35
2016-12-11T08:17:25.692Z,23.39
2016-12-11T08:18:06.477Z,23.27
2016-12-11T08:18:47.235Z,23.4
2016-12-11T08:19:28.001Z,23.27
2016-12-11T08:20:08.762Z,23.25
2016-12-11T08:20:49.534Z,23.33
2016-12-11T08:21:30.260Z,23.35
2016-12-11T08:22:11.030Z,23.31
2016-12-11T08:22:51.798Z,23.28
2016-12-11T08:23:32.557Z,23.32
2016-12-11T08:24:13.356Z,23.33
2016-12-11T08:24:54.102Z,23.32
2016-12-11T08:25:34.845Z,23.36
2016-12-11T08:26:15.649Z,23.28
2016-12-11T08:26:56.426Z,23.4
2016-12-11T08:27:37.194Z,23.28
2016-12-11T08:28:17.961Z,23.33
2016-12-11T08:28:58.730Z,23.31
2016-12-11T08:29:39.518Z,23.32
2016-12-11T08:30:20.290Z,23.35
2016-12-11T08:31:01.080Z,23.31
2016-12-11T08:31:41.848Z,23.36
2016-12-11T08:32:22.574Z,23.4
2016-12-11T08:33:03.360Z,23.4
2016-12-11T08:33:44.098Z,23.36
2016-12-11T08:34:24.875Z,23.4
2016-12-11T08:35:05.636Z,23.38
2016-12-11T08:35:46.406Z,23.38
2016-12-11T08:36:27.151Z,23.43
2016-12-11T08:37:07.915Z,23.36
2016-12-11T08:37:48.664Z,23.46
2016-12-11T08:38:29.431Z,23.36
2016-12-11T08:39:10.186Z,23.42
2016-12-11T08:39:50.982Z,23.4
2016-12-11T08:40:31.742Z,23.35
2016-12-11T08:41:12.525Z,23.35
2016-12-11T08:41:53.297Z,23.4
2016-12-11T08:42:34.059Z,23.46
2016-12-11T08:43:14.864Z,23.38
2016-12-11T08:43:55.624Z,23.36
2016-12-11T08:44:36.409Z,23.43
2016-12-11T08:45:17.145Z,23.43
2016-12-11T08:45:57.907Z,23.36
2016-12-11T08:46:38.675Z,23.35